sensor_id;sensor_type;location;lat;lon;timestamp;temperature;humidity
42907;DHT22;28552;51.146;6.576;2023-04-24T00:02:27;10.30;99.90
42907;DHT22;28552;51.146;6.576;2023-04-24T00:05:27;10.10;99.90
42907;DHT22;28552;51.146;6.576;2023-04-24T00:08:28;9.90;99.90
42907;DHT22;28552;51.146;6.576;2023-04-24T00:11:29;9.80;99.90
42907;DHT22;28552;51.146;6.576;2023-04-24T00:14:30;9.80;99.90
42907;DHT22;28552;51.146;6.576;2023-04-24T00:17:31;9.70;99.90
42907;DHT22;28552;51.146;6.576;2023-04-24T00:20:32;9.60;99.90
42907;DHT22;28552;51.146;6.576;2023-04-24T00:23:33;9.60;99.90
42907;DHT22;28552;51.146;6.576;2023-04-24T00:26:34;9.50;99.90
42907;DHT22;28552;51.146;6.576;2023-04-24T00:29:34;9.50;99.90
42907;DHT22;28552;51.146;6.576;2023-04-24T00:32:35;9.50;99.90
42907;DHT22;28552;51.146;6.576;2023-04-24T00:35:35;9.60;99.90
42907;DHT22;28552;51.146;6.576;2023-04-24T00:38:36;9.60;99.90
42907;DHT22;28552;51.146;6.576;2023-04-24T00:41:37;9.70;99.90
42907;DHT22;28552;51.146;6.576;2023-04-24T00:44:38;9.70;99.90
42907;DHT22;28552;51.146;6.576;2023-04-24T00:47:39;9.70;99.90
42907;DHT22;28552;51.146;6.576;2023-04-24T00:50:39;9.80;99.90
42907;DHT22;28552;51.146;6.576;2023-04-24T00:53:40;9.80;99.90
42907;DHT22;28552;51.146;6.576;2023-04-24T00:56:42;9.80;99.90
42907;DHT22;28552;51.146;6.576;2023-04-24T00:59:43;9.70;99.90
42907;DHT22;28552;51.146;6.576;2023-04-24T01:02:44;9.70;99.90
42907;DHT22;28552;51.146;6.576;2023-04-24T01:05:45;9.70;99.90
42907;DHT22;28552;51.146;6.576;2023-04-24T01:08:47;9.60;99.90
42907;DHT22;28552;51.146;6.576;2023-04-24T01:11:48;9.50;99.90
42907;DHT22;28552;51.146;6.576;2023-04-24T01:14:49;9.30;99.90
42907;DHT22;28552;51.146;6.576;2023-04-24T01:17:49;9.20;99.90
42907;DHT22;28552;51.146;6.576;2023-04-24T01:20:54;9.10;99.90
42907;DHT22;28552;51.146;6.576;2023-04-24T01:23:57;9.10;99.90
42907;DHT22;28552;51.146;6.576;2023-04-24T01:26:57;9.20;99.90
42907;DHT22;28552;51.146;6.576;2023-04-24T01:29:58;9.10;99.90
42907;DHT22;28552;51.146;6.576;2023-04-24T01:32:58;9.20;99.90
42907;DHT22;28552;51.146;6.576;2023-04-24T01:35:59;9.20;99.90
42907;DHT22;28552;51.146;6.576;2023-04-24T01:39:01;9.20;99.90
42907;DHT22;28552;51.146;6.576;2023-04-24T01:42:01;9.20;99.90
42907;DHT22;28552;51.146;6.576;2023-04-24T01:45:04;9.20;99.90
42907;DHT22;28552;51.146;6.576;2023-04-24T01:48:05;9.20;99.90
42907;DHT22;28552;51.146;6.576;2023-04-24T01:51:06;9.20;99.90
42907;DHT22;28552;51.146;6.576;2023-04-24T01:54:06;9.20;99.90
42907;DHT22;28552;51.146;6.576;2023-04-24T01:57:07;9.20;99.90
42907;DHT22;28552;51.146;6.576;2023-04-24T02:00:09;9.20;99.90
42907;DHT22;28552;51.146;6.576;2023-04-24T02:03:11;9.20;99.90
42907;DHT22;28552;51.146;6.576;2023-04-24T02:06:12;9.30;99.90
42907;DHT22;28552;51.146;6.576;2023-04-24T02:09:12;9.30;99.90
42907;DHT22;28552;51.146;6.576;2023-04-24T02:12:13;9.40;99.90
42907;DHT22;28552;51.146;6.576;2023-04-24T02:15:14;9.40;99.90
42907;DHT22;28552;51.146;6.576;2023-04-24T02:18:15;9.40;99.90
42907;DHT22;28552;51.146;6.576;2023-04-24T02:21:16;9.40;99.90
42907;DHT22;28552;51.146;6.576;2023-04-24T02:24:16;9.40;99.90
42907;DHT22;28552;51.146;6.576;2023-04-24T02:27:17;9.40;99.90
42907;DHT22;28552;51.146;6.576;2023-04-24T02:30:17;9.50;99.90
42907;DHT22;28552;51.146;6.576;2023-04-24T02:33:18;9.50;99.90
42907;DHT22;28552;51.146;6.576;2023-04-24T02:36:18;9.50;99.90
42907;DHT22;28552;51.146;6.576;2023-04-24T02:39:19;9.40;99.90
42907;DHT22;28552;51.146;6.576;2023-04-24T02:42:20;9.50;99.90
42907;DHT22;28552;51.146;6.576;2023-04-24T02:45:21;9.50;99.90
42907;DHT22;28552;51.146;6.576;2023-04-24T02:48:21;9.50;99.90
42907;DHT22;28552;51.146;6.576;2023-04-24T02:51:22;9.50;99.90
42907;DHT22;28552;51.146;6.576;2023-04-24T02:54:22;9.50;99.90
42907;DHT22;28552;51.146;6.576;2023-04-24T02:57:23;9.50;99.90
42907;DHT22;28552;51.146;6.576;2023-04-24T03:00:23;9.50;99.90
42907;DHT22;28552;51.146;6.576;2023-04-24T03:03:24;9.50;99.90
42907;DHT22;28552;51.146;6.576;2023-04-24T03:06:25;9.50;99.90
42907;DHT22;28552;51.146;6.576;2023-04-24T03:09:27;9.50;99.90
42907;DHT22;28552;51.146;6.576;2023-04-24T03:12:27;9.50;99.90
42907;DHT22;28552;51.146;6.576;2023-04-24T03:15:28;9.50;99.90
42907;DHT22;28552;51.146;6.576;2023-04-24T03:18:29;9.50;99.90
42907;DHT22;28552;51.146;6.576;2023-04-24T03:21:29;9.50;99.90
42907;DHT22;28552;51.146;6.576;2023-04-24T03:24:30;9.50;99.90
42907;DHT22;28552;51.146;6.576;2023-04-24T03:27:31;9.50;99.90
42907;DHT22;28552;51.146;6.576;2023-04-24T03:30:32;9.60;99.90
42907;DHT22;28552;51.146;6.576;2023-04-24T03:33:32;9.50;99.90
42907;DHT22;28552;51.146;6.576;2023-04-24T03:36:33;9.50;99.90
42907;DHT22;28552;51.146;6.576;2023-04-24T03:39:33;9.50;99.90
42907;DHT22;28552;51.146;6.576;2023-04-24T03:42:34;9.50;99.90
42907;DHT22;28552;51.146;6.576;2023-04-24T03:45:34;9.50;99.90
42907;DHT22;28552;51.146;6.576;2023-04-24T03:48:35;9.50;99.90
42907;DHT22;28552;51.146;6.576;2023-04-24T03:51:36;9.50;99.90
42907;DHT22;28552;51.146;6.576;2023-04-24T03:54:37;9.50;99.90
42907;DHT22;28552;51.146;6.576;2023-04-24T03:57:37;9.50;99.90
42907;DHT22;28552;51.146;6.576;2023-04-24T04:00:38;9.50;99.90
42907;DHT22;28552;51.146;6.576;2023-04-24T04:03:40;9.50;99.90
42907;DHT22;28552;51.146;6.576;2023-04-24T04:06:41;9.50;99.90
42907;DHT22;28552;51.146;6.576;2023-04-24T04:09:42;9.40;99.90
42907;DHT22;28552;51.146;6.576;2023-04-24T04:12:43;9.40;99.90
42907;DHT22;28552;51.146;6.576;2023-04-24T04:15:43;9.30;99.90
42907;DHT22;28552;51.146;6.576;2023-04-24T04:18:44;9.30;99.90
42907;DHT22;28552;51.146;6.576;2023-04-24T04:21:45;9.30;99.90
42907;DHT22;28552;51.146;6.576;2023-04-24T04:24:46;9.30;99.90
42907;DHT22;28552;51.146;6.576;2023-04-24T04:27:46;9.30;99.90
42907;DHT22;28552;51.146;6.576;2023-04-24T04:30:48;9.30;99.90
42907;DHT22;28552;51.146;6.576;2023-04-24T04:33:49;9.30;99.90
42907;DHT22;28552;51.146;6.576;2023-04-24T04:36:50;9.30;99.90
42907;DHT22;28552;51.146;6.576;2023-04-24T04:39:50;9.20;99.90
42907;DHT22;28552;51.146;6.576;2023-04-24T04:42:51;9.20;99.90
42907;DHT22;28552;51.146;6.576;2023-04-24T04:45:53;9.20;99.90
42907;DHT22;28552;51.146;6.576;2023-04-24T04:48:54;9.20;99.90
42907;DHT22;28552;51.146;6.576;2023-04-24T04:51:56;9.20;99.90
42907;DHT22;28552;51.146;6.576;2023-04-24T04:54:57;9.20;99.90
42907;DHT22;28552;51.146;6.576;2023-04-24T04:57:58;9.20;99.90
42907;DHT22;28552;51.146;6.576;2023-04-24T05:01:00;9.20;99.90
42907;DHT22;28552;51.146;6.576;2023-04-24T05:04:01;9.20;99.90
42907;DHT22;28552;51.146;6.576;2023-04-24T05:07:01;9.20;99.90
42907;DHT22;28552;51.146;6.576;2023-04-24T05:10:03;9.10;99.90
42907;DHT22;28552;51.146;6.576;2023-04-24T05:13:03;9.00;99.90
42907;DHT22;28552;51.146;6.576;2023-04-24T05:16:05;8.90;99.90
42907;DHT22;28552;51.146;6.576;2023-04-24T05:19:05;8.70;99.90
42907;DHT22;28552;51.146;6.576;2023-04-24T05:22:06;8.50;99.90
42907;DHT22;28552;51.146;6.576;2023-04-24T05:25:07;8.50;99.90
42907;DHT22;28552;51.146;6.576;2023-04-24T05:28:08;8.40;99.90
42907;DHT22;28552;51.146;6.576;2023-04-24T05:31:08;8.40;99.90
42907;DHT22;28552;51.146;6.576;2023-04-24T05:34:09;8.30;99.90
42907;DHT22;28552;51.146;6.576;2023-04-24T05:37:10;8.30;99.90
42907;DHT22;28552;51.146;6.576;2023-04-24T05:40:11;8.40;99.90
42907;DHT22;28552;51.146;6.576;2023-04-24T05:43:12;8.40;99.90
42907;DHT22;28552;51.146;6.576;2023-04-24T05:46:12;8.30;99.90
42907;DHT22;28552;51.146;6.576;2023-04-24T05:49:13;8.40;99.90
42907;DHT22;28552;51.146;6.576;2023-04-24T05:52:13;8.40;99.90
42907;DHT22;28552;51.146;6.576;2023-04-24T05:55:14;8.40;99.90
42907;DHT22;28552;51.146;6.576;2023-04-24T05:58:17;8.40;99.90
42907;DHT22;28552;51.146;6.576;2023-04-24T06:01:18;8.40;99.90
42907;DHT22;28552;51.146;6.576;2023-04-24T06:04:19;8.40;99.90
42907;DHT22;28552;51.146;6.576;2023-04-24T06:07:20;8.40;99.90
42907;DHT22;28552;51.146;6.576;2023-04-24T06:10:21;8.40;99.90
42907;DHT22;28552;51.146;6.576;2023-04-24T06:13:22;8.30;99.90
42907;DHT22;28552;51.146;6.576;2023-04-24T06:16:22;8.30;99.90
42907;DHT22;28552;51.146;6.576;2023-04-24T06:19:23;8.20;99.90
42907;DHT22;28552;51.146;6.576;2023-04-24T06:22:23;8.20;99.90
42907;DHT22;28552;51.146;6.576;2023-04-24T06:25:25;8.10;99.90
42907;DHT22;28552;51.146;6.576;2023-04-24T06:28:27;8.10;99.90
42907;DHT22;28552;51.146;6.576;2023-04-24T06:31:27;8.10;99.90
42907;DHT22;28552;51.146;6.576;2023-04-24T06:34:28;8.10;99.90
42907;DHT22;28552;51.146;6.576;2023-04-24T06:37:28;8.00;99.90
42907;DHT22;28552;51.146;6.576;2023-04-24T06:40:29;8.00;99.90
42907;DHT22;28552;51.146;6.576;2023-04-24T06:43:30;8.10;99.90
42907;DHT22;28552;51.146;6.576;2023-04-24T06:46:31;8.10;99.90
42907;DHT22;28552;51.146;6.576;2023-04-24T06:49:31;8.00;99.90
42907;DHT22;28552;51.146;6.576;2023-04-24T06:52:32;8.00;99.90
42907;DHT22;28552;51.146;6.576;2023-04-24T06:55:33;8.00;99.90
42907;DHT22;28552;51.146;6.576;2023-04-24T06:58:33;8.00;99.90
42907;DHT22;28552;51.146;6.576;2023-04-24T07:01:34;8.00;99.90
42907;DHT22;28552;51.146;6.576;2023-04-24T07:04:34;7.90;99.90
42907;DHT22;28552;51.146;6.576;2023-04-24T07:07:35;7.90;99.90
42907;DHT22;28552;51.146;6.576;2023-04-24T07:10:38;7.90;99.90
42907;DHT22;28552;51.146;6.576;2023-04-24T07:13:38;7.90;99.90
42907;DHT22;28552;51.146;6.576;2023-04-24T07:16:42;7.90;99.90
42907;DHT22;28552;51.146;6.576;2023-04-24T07:19:43;7.80;99.90
42907;DHT22;28552;51.146;6.576;2023-04-24T07:22:43;7.80;99.90
42907;DHT22;28552;51.146;6.576;2023-04-24T07:25:44;7.70;99.90
42907;DHT22;28552;51.146;6.576;2023-04-24T07:28:44;7.40;99.90
42907;DHT22;28552;51.146;6.576;2023-04-24T07:31:45;7.20;99.90
42907;DHT22;28552;51.146;6.576;2023-04-24T07:34:46;7.00;99.90
42907;DHT22;28552;51.146;6.576;2023-04-24T07:37:47;6.90;99.90
42907;DHT22;28552;51.146;6.576;2023-04-24T07:40:49;6.80;99.90
42907;DHT22;28552;51.146;6.576;2023-04-24T07:43:49;6.70;99.90
42907;DHT22;28552;51.146;6.576;2023-04-24T07:46:50;6.70;99.90
42907;DHT22;28552;51.146;6.576;2023-04-24T07:49:51;6.60;99.90
42907;DHT22;28552;51.146;6.576;2023-04-24T07:52:51;6.60;99.90
42907;DHT22;28552;51.146;6.576;2023-04-24T07:55:52;6.60;99.90
42907;DHT22;28552;51.146;6.576;2023-04-24T07:58:54;6.70;99.90
42907;DHT22;28552;51.146;6.576;2023-04-24T08:01:54;6.70;99.90
42907;DHT22;28552;51.146;6.576;2023-04-24T08:04:55;6.70;99.90
42907;DHT22;28552;51.146;6.576;2023-04-24T08:07:56;6.80;99.90
42907;DHT22;28552;51.146;6.576;2023-04-24T08:10:57;6.90;99.90
42907;DHT22;28552;51.146;6.576;2023-04-24T08:13:57;7.10;99.90
42907;DHT22;28552;51.146;6.576;2023-04-24T08:16:58;7.10;99.90
42907;DHT22;28552;51.146;6.576;2023-04-24T08:20:00;7.20;99.90
42907;DHT22;28552;51.146;6.576;2023-04-24T08:23:02;7.30;99.90
42907;DHT22;28552;51.146;6.576;2023-04-24T08:26:03;7.40;99.90
42907;DHT22;28552;51.146;6.576;2023-04-24T08:29:04;7.40;99.90
42907;DHT22;28552;51.146;6.576;2023-04-24T08:32:04;7.50;99.90
42907;DHT22;28552;51.146;6.576;2023-04-24T08:35:05;7.50;99.90
42907;DHT22;28552;51.146;6.576;2023-04-24T08:38:08;7.50;99.90
42907;DHT22;28552;51.146;6.576;2023-04-24T08:41:09;7.40;99.90
42907;DHT22;28552;51.146;6.576;2023-04-24T08:44:11;7.40;99.90
42907;DHT22;28552;51.146;6.576;2023-04-24T08:47:12;7.30;99.90
42907;DHT22;28552;51.146;6.576;2023-04-24T08:50:12;7.30;99.90
42907;DHT22;28552;51.146;6.576;2023-04-24T08:53:13;7.30;99.90
42907;DHT22;28552;51.146;6.576;2023-04-24T08:56:14;7.30;99.90
42907;DHT22;28552;51.146;6.576;2023-04-24T08:59:16;7.30;99.90
42907;DHT22;28552;51.146;6.576;2023-04-24T09:02:17;7.30;99.90
42907;DHT22;28552;51.146;6.576;2023-04-24T09:05:18;7.30;99.90
42907;DHT22;28552;51.146;6.576;2023-04-24T09:08:23;7.40;99.90
42907;DHT22;28552;51.146;6.576;2023-04-24T09:11:25;7.40;99.90
42907;DHT22;28552;51.146;6.576;2023-04-24T09:14:26;7.40;99.90
42907;DHT22;28552;51.146;6.576;2023-04-24T09:17:28;7.40;99.90
42907;DHT22;28552;51.146;6.576;2023-04-24T09:20:28;7.40;99.90
42907;DHT22;28552;51.146;6.576;2023-04-24T09:23:31;7.40;99.90
42907;DHT22;28552;51.146;6.576;2023-04-24T09:26:34;7.50;99.90
42907;DHT22;28552;51.146;6.576;2023-04-24T09:29:34;7.50;99.90
42907;DHT22;28552;51.146;6.576;2023-04-24T09:32:35;7.60;99.90
42907;DHT22;28552;51.146;6.576;2023-04-24T09:35:35;7.70;99.90
42907;DHT22;28552;51.146;6.576;2023-04-24T09:38:37;7.80;99.90
42907;DHT22;28552;51.146;6.576;2023-04-24T09:41:53;7.80;99.90
42907;DHT22;28552;51.146;6.576;2023-04-24T09:44:55;7.90;99.90
42907;DHT22;28552;51.146;6.576;2023-04-24T09:47:56;8.00;99.90
42907;DHT22;28552;51.146;6.576;2023-04-24T09:50:57;8.20;99.90
42907;DHT22;28552;51.146;6.576;2023-04-24T09:53:58;8.20;99.90
42907;DHT22;28552;51.146;6.576;2023-04-24T09:56:59;8.30;99.90
42907;DHT22;28552;51.146;6.576;2023-04-24T10:00:00;8.40;99.90
42907;DHT22;28552;51.146;6.576;2023-04-24T10:03:02;8.50;99.90
42907;DHT22;28552;51.146;6.576;2023-04-24T10:06:04;8.60;99.90
42907;DHT22;28552;51.146;6.576;2023-04-24T10:09:08;8.80;99.90
42907;DHT22;28552;51.146;6.576;2023-04-24T10:12:12;8.90;99.90
42907;DHT22;28552;51.146;6.576;2023-04-24T10:15:13;9.00;99.90
42907;DHT22;28552;51.146;6.576;2023-04-24T10:18:15;8.90;99.90
42907;DHT22;28552;51.146;6.576;2023-04-24T10:21:17;8.80;99.90
42907;DHT22;28552;51.146;6.576;2023-04-24T10:24:18;8.70;99.90
42907;DHT22;28552;51.146;6.576;2023-04-24T10:27:21;8.60;99.90
42907;DHT22;28552;51.146;6.576;2023-04-24T10:30:22;8.40;99.90
42907;DHT22;28552;51.146;6.576;2023-04-24T10:33:23;8.40;99.90
42907;DHT22;28552;51.146;6.576;2023-04-24T10:36:24;8.30;99.90
42907;DHT22;28552;51.146;6.576;2023-04-24T10:39:27;8.40;99.90
42907;DHT22;28552;51.146;6.576;2023-04-24T10:42:27;8.50;99.90
42907;DHT22;28552;51.146;6.576;2023-04-24T10:45:28;8.70;99.90
42907;DHT22;28552;51.146;6.576;2023-04-24T10:48:29;8.90;99.90
42907;DHT22;28552;51.146;6.576;2023-04-24T10:51:48;9.00;99.90
42907;DHT22;28552;51.146;6.576;2023-04-24T10:54:50;9.10;99.90
42907;DHT22;28552;51.146;6.576;2023-04-24T10:58:02;9.20;99.90
42907;DHT22;28552;51.146;6.576;2023-04-24T11:01:04;9.30;99.90
42907;DHT22;28552;51.146;6.576;2023-04-24T11:04:04;9.30;99.90
42907;DHT22;28552;51.146;6.576;2023-04-24T11:07:05;9.50;99.90
42907;DHT22;28552;51.146;6.576;2023-04-24T11:10:06;9.60;99.90
42907;DHT22;28552;51.146;6.576;2023-04-24T11:13:07;9.80;99.90
42907;DHT22;28552;51.146;6.576;2023-04-24T11:19:25;10.00;99.90
42907;DHT22;28552;51.146;6.576;2023-04-24T11:22:28;10.10;99.90
42907;DHT22;28552;51.146;6.576;2023-04-24T11:25:31;10.20;99.90
42907;DHT22;28552;51.146;6.576;2023-04-24T11:28:32;10.20;99.90
42907;DHT22;28552;51.146;6.576;2023-04-24T11:31:38;10.20;99.90
42907;DHT22;28552;51.146;6.576;2023-04-24T11:34:39;10.30;99.90
42907;DHT22;28552;51.146;6.576;2023-04-24T11:37:42;10.40;99.90
42907;DHT22;28552;51.146;6.576;2023-04-24T11:40:43;10.40;99.90
42907;DHT22;28552;51.146;6.576;2023-04-24T11:43:45;10.20;99.90
42907;DHT22;28552;51.146;6.576;2023-04-24T11:46:46;10.20;99.90
42907;DHT22;28552;51.146;6.576;2023-04-24T11:49:49;10.30;99.90
42907;DHT22;28552;51.146;6.576;2023-04-24T11:52:50;10.50;99.90
42907;DHT22;28552;51.146;6.576;2023-04-24T11:55:51;10.80;99.90
42907;DHT22;28552;51.146;6.576;2023-04-24T11:58:52;10.80;99.90
42907;DHT22;28552;51.146;6.576;2023-04-24T12:01:54;10.80;99.90
42907;DHT22;28552;51.146;6.576;2023-04-24T12:04:55;10.90;99.90
42907;DHT22;28552;51.146;6.576;2023-04-24T12:07:56;11.00;99.90
42907;DHT22;28552;51.146;6.576;2023-04-24T12:10:56;11.10;99.90
42907;DHT22;28552;51.146;6.576;2023-04-24T12:13:58;11.30;99.90
42907;DHT22;28552;51.146;6.576;2023-04-24T12:17:09;11.30;99.90
42907;DHT22;28552;51.146;6.576;2023-04-24T12:20:10;11.20;99.90
42907;DHT22;28552;51.146;6.576;2023-04-24T12:23:12;11.10;99.90
42907;DHT22;28552;51.146;6.576;2023-04-24T12:26:17;11.00;99.90
42907;DHT22;28552;51.146;6.576;2023-04-24T12:29:20;10.60;99.90
42907;DHT22;28552;51.146;6.576;2023-04-24T12:32:21;10.50;99.90
42907;DHT22;28552;51.146;6.576;2023-04-24T12:35:23;10.50;99.90
42907;DHT22;28552;51.146;6.576;2023-04-24T12:38:26;10.60;99.90
42907;DHT22;28552;51.146;6.576;2023-04-24T12:41:30;10.70;99.90
42907;DHT22;28552;51.146;6.576;2023-04-24T12:44:32;10.70;99.90
42907;DHT22;28552;51.146;6.576;2023-04-24T12:47:35;10.70;99.90
42907;DHT22;28552;51.146;6.576;2023-04-24T12:50:37;10.50;99.90
42907;DHT22;28552;51.146;6.576;2023-04-24T12:53:38;10.50;99.90
42907;DHT22;28552;51.146;6.576;2023-04-24T12:56:38;10.60;99.90
42907;DHT22;28552;51.146;6.576;2023-04-24T12:59:39;10.70;99.90
42907;DHT22;28552;51.146;6.576;2023-04-24T13:02:40;10.90;99.90
42907;DHT22;28552;51.146;6.576;2023-04-24T13:05:42;11.00;99.90
42907;DHT22;28552;51.146;6.576;2023-04-24T13:08:43;11.10;99.90
42907;DHT22;28552;51.146;6.576;2023-04-24T13:11:44;11.20;99.90
42907;DHT22;28552;51.146;6.576;2023-04-24T13:14:44;11.50;99.90
42907;DHT22;28552;51.146;6.576;2023-04-24T13:17:46;11.60;99.90
42907;DHT22;28552;51.146;6.576;2023-04-24T13:20:46;11.80;99.90
42907;DHT22;28552;51.146;6.576;2023-04-24T13:23:47;11.90;99.90
42907;DHT22;28552;51.146;6.576;2023-04-24T13:26:48;11.90;99.90
42907;DHT22;28552;51.146;6.576;2023-04-24T13:29:48;11.90;99.90
42907;DHT22;28552;51.146;6.576;2023-04-24T13:32:49;11.90;99.90
42907;DHT22;28552;51.146;6.576;2023-04-24T13:35:49;11.80;99.90
42907;DHT22;28552;51.146;6.576;2023-04-24T13:38:50;11.70;99.90
42907;DHT22;28552;51.146;6.576;2023-04-24T13:41:51;11.80;99.90
42907;DHT22;28552;51.146;6.576;2023-04-24T13:44:52;11.80;99.90
42907;DHT22;28552;51.146;6.576;2023-04-24T13:47:53;11.60;99.90
42907;DHT22;28552;51.146;6.576;2023-04-24T13:50:54;11.40;99.90
42907;DHT22;28552;51.146;6.576;2023-04-24T13:53:55;11.30;99.90
42907;DHT22;28552;51.146;6.576;2023-04-24T13:56:57;11.20;99.90
42907;DHT22;28552;51.146;6.576;2023-04-24T13:59:59;11.30;99.90
42907;DHT22;28552;51.146;6.576;2023-04-24T14:03:02;11.40;99.90
42907;DHT22;28552;51.146;6.576;2023-04-24T14:06:02;11.70;99.90
42907;DHT22;28552;51.146;6.576;2023-04-24T14:09:03;11.80;99.90
42907;DHT22;28552;51.146;6.576;2023-04-24T14:12:03;11.80;99.90
42907;DHT22;28552;51.146;6.576;2023-04-24T14:15:05;11.70;99.90
42907;DHT22;28552;51.146;6.576;2023-04-24T14:18:06;11.50;99.90
42907;DHT22;28552;51.146;6.576;2023-04-24T14:21:06;11.30;99.90
42907;DHT22;28552;51.146;6.576;2023-04-24T14:24:08;11.40;99.90
42907;DHT22;28552;51.146;6.576;2023-04-24T14:27:08;11.60;99.90
42907;DHT22;28552;51.146;6.576;2023-04-24T14:30:09;11.60;99.90
42907;DHT22;28552;51.146;6.576;2023-04-24T14:33:10;11.90;99.90
42907;DHT22;28552;51.146;6.576;2023-04-24T14:36:10;12.20;99.90
42907;DHT22;28552;51.146;6.576;2023-04-24T14:39:11;12.20;99.90
42907;DHT22;28552;51.146;6.576;2023-04-24T14:42:12;12.30;99.90
42907;DHT22;28552;51.146;6.576;2023-04-24T14:45:12;12.30;99.90
42907;DHT22;28552;51.146;6.576;2023-04-24T14:48:13;12.30;99.90
42907;DHT22;28552;51.146;6.576;2023-04-24T14:51:13;12.40;99.90
42907;DHT22;28552;51.146;6.576;2023-04-24T14:54:14;12.40;99.90
42907;DHT22;28552;51.146;6.576;2023-04-24T14:57:14;12.40;99.90
42907;DHT22;28552;51.146;6.576;2023-04-24T15:00:15;12.40;99.90
42907;DHT22;28552;51.146;6.576;2023-04-24T15:03:18;12.40;99.90
42907;DHT22;28552;51.146;6.576;2023-04-24T15:06:19;12.50;99.90
42907;DHT22;28552;51.146;6.576;2023-04-24T15:09:21;12.30;99.90
42907;DHT22;28552;51.146;6.576;2023-04-24T15:12:22;12.10;99.90
42907;DHT22;28552;51.146;6.576;2023-04-24T15:15:22;11.90;99.90
42907;DHT22;28552;51.146;6.576;2023-04-24T15:18:23;11.80;99.90
42907;DHT22;28552;51.146;6.576;2023-04-24T15:21:23;11.70;99.90
42907;DHT22;28552;51.146;6.576;2023-04-24T15:24:24;11.60;99.90
42907;DHT22;28552;51.146;6.576;2023-04-24T15:27:25;11.50;99.90
42907;DHT22;28552;51.146;6.576;2023-04-24T15:30:26;11.60;99.90
42907;DHT22;28552;51.146;6.576;2023-04-24T15:33:27;11.70;99.90
42907;DHT22;28552;51.146;6.576;2023-04-24T15:36:27;11.70;99.90
42907;DHT22;28552;51.146;6.576;2023-04-24T15:39:28;11.80;99.90
42907;DHT22;28552;51.146;6.576;2023-04-24T15:42:28;11.90;99.90
42907;DHT22;28552;51.146;6.576;2023-04-24T15:45:29;12.00;99.90
42907;DHT22;28552;51.146;6.576;2023-04-24T15:48:31;12.00;99.90
42907;DHT22;28552;51.146;6.576;2023-04-24T15:51:31;11.90;99.90
42907;DHT22;28552;51.146;6.576;2023-04-24T15:54:32;11.80;99.90
42907;DHT22;28552;51.146;6.576;2023-04-24T15:57:32;11.70;99.90
42907;DHT22;28552;51.146;6.576;2023-04-24T16:00:33;11.70;99.90
42907;DHT22;28552;51.146;6.576;2023-04-24T16:03:34;11.80;99.90
42907;DHT22;28552;51.146;6.576;2023-04-24T16:06:34;11.80;99.90
42907;DHT22;28552;51.146;6.576;2023-04-24T16:09:35;11.90;99.90
42907;DHT22;28552;51.146;6.576;2023-04-24T16:12:36;11.80;99.90
42907;DHT22;28552;51.146;6.576;2023-04-24T16:15:36;11.70;99.90
42907;DHT22;28552;51.146;6.576;2023-04-24T16:18:38;11.60;99.90
42907;DHT22;28552;51.146;6.576;2023-04-24T16:21:38;11.50;99.90
42907;DHT22;28552;51.146;6.576;2023-04-24T16:24:39;11.50;99.90
42907;DHT22;28552;51.146;6.576;2023-04-24T16:27:39;11.50;99.90
42907;DHT22;28552;51.146;6.576;2023-04-24T16:30:40;11.50;99.90
42907;DHT22;28552;51.146;6.576;2023-04-24T16:33:41;11.60;99.90
42907;DHT22;28552;51.146;6.576;2023-04-24T16:36:42;11.60;99.90
42907;DHT22;28552;51.146;6.576;2023-04-24T16:39:42;11.80;99.90
42907;DHT22;28552;51.146;6.576;2023-04-24T16:42:44;12.00;99.90
42907;DHT22;28552;51.146;6.576;2023-04-24T16:45:45;12.10;99.90
42907;DHT22;28552;51.146;6.576;2023-04-24T16:48:45;12.20;99.90
42907;DHT22;28552;51.146;6.576;2023-04-24T16:51:46;12.20;99.90
42907;DHT22;28552;51.146;6.576;2023-04-24T16:54:46;12.20;99.90
42907;DHT22;28552;51.146;6.576;2023-04-24T16:57:47;12.50;99.90
42907;DHT22;28552;51.146;6.576;2023-04-24T17:00:48;13.00;99.90
42907;DHT22;28552;51.146;6.576;2023-04-24T17:03:49;12.90;99.90
42907;DHT22;28552;51.146;6.576;2023-04-24T17:06:50;12.30;99.90
42907;DHT22;28552;51.146;6.576;2023-04-24T17:09:51;11.80;99.90
42907;DHT22;28552;51.146;6.576;2023-04-24T17:12:51;11.70;99.90
42907;DHT22;28552;51.146;6.576;2023-04-24T17:15:52;11.60;99.90
42907;DHT22;28552;51.146;6.576;2023-04-24T17:18:53;11.40;99.90
42907;DHT22;28552;51.146;6.576;2023-04-24T17:21:53;11.70;99.90
42907;DHT22;28552;51.146;6.576;2023-04-24T17:24:54;11.70;99.90
42907;DHT22;28552;51.146;6.576;2023-04-24T17:27:54;11.60;99.90
42907;DHT22;28552;51.146;6.576;2023-04-24T17:30:55;11.50;99.90
42907;DHT22;28552;51.146;6.576;2023-04-24T17:33:57;11.10;99.90
42907;DHT22;28552;51.146;6.576;2023-04-24T17:36:58;10.80;99.90
42907;DHT22;28552;51.146;6.576;2023-04-24T17:39:59;10.60;99.90
42907;DHT22;28552;51.146;6.576;2023-04-24T17:43:00;10.50;99.90
42907;DHT22;28552;51.146;6.576;2023-04-24T17:46:00;10.70;99.90
42907;DHT22;28552;51.146;6.576;2023-04-24T17:49:01;11.30;99.90
42907;DHT22;28552;51.146;6.576;2023-04-24T17:52:01;11.60;99.90
42907;DHT22;28552;51.146;6.576;2023-04-24T17:55:02;11.50;99.90
42907;DHT22;28552;51.146;6.576;2023-04-24T17:58:03;11.20;99.90
42907;DHT22;28552;51.146;6.576;2023-04-24T18:01:04;10.80;99.90
42907;DHT22;28552;51.146;6.576;2023-04-24T18:04:04;10.50;99.90
42907;DHT22;28552;51.146;6.576;2023-04-24T18:07:05;10.20;99.90
42907;DHT22;28552;51.146;6.576;2023-04-24T18:10:06;10.10;99.90
42907;DHT22;28552;51.146;6.576;2023-04-24T18:13:07;10.00;99.90
42907;DHT22;28552;51.146;6.576;2023-04-24T18:16:08;9.90;99.90
42907;DHT22;28552;51.146;6.576;2023-04-24T18:19:09;10.00;99.90
42907;DHT22;28552;51.146;6.576;2023-04-24T18:22:10;9.90;99.90
42907;DHT22;28552;51.146;6.576;2023-04-24T18:25:11;9.80;99.90
42907;DHT22;28552;51.146;6.576;2023-04-24T18:28:12;9.70;99.90
42907;DHT22;28552;51.146;6.576;2023-04-24T18:31:12;9.60;99.90
42907;DHT22;28552;51.146;6.576;2023-04-24T18:34:13;9.50;99.90
42907;DHT22;28552;51.146;6.576;2023-04-24T18:37:13;9.40;99.90
42907;DHT22;28552;51.146;6.576;2023-04-24T18:40:14;9.30;99.90
42907;DHT22;28552;51.146;6.576;2023-04-24T18:43:15;9.10;99.90
42907;DHT22;28552;51.146;6.576;2023-04-24T18:46:15;9.10;99.90
42907;DHT22;28552;51.146;6.576;2023-04-24T18:49:16;9.00;99.90
42907;DHT22;28552;51.146;6.576;2023-04-24T18:52:16;8.90;99.90
42907;DHT22;28552;51.146;6.576;2023-04-24T18:55:17;8.80;99.90
42907;DHT22;28552;51.146;6.576;2023-04-24T18:58:17;8.70;99.90
42907;DHT22;28552;51.146;6.576;2023-04-24T19:01:18;8.70;99.90
42907;DHT22;28552;51.146;6.576;2023-04-24T19:04:18;8.60;99.90
42907;DHT22;28552;51.146;6.576;2023-04-24T19:07:20;8.60;99.90
42907;DHT22;28552;51.146;6.576;2023-04-24T19:10:21;8.50;99.90
42907;DHT22;28552;51.146;6.576;2023-04-24T19:13:22;8.40;99.90
42907;DHT22;28552;51.146;6.576;2023-04-24T19:16:22;8.40;99.90
42907;DHT22;28552;51.146;6.576;2023-04-24T19:19:23;8.30;99.90